sensor_id;sensor_type;location;lat;lon;timestamp;P1;durP1;ratioP1;P2;durP2;ratioP2
20069;SDS011;10195;50.868;4.382;2022-08-19T00:00:34;28.70;;;21.20;;
20069;SDS011;10195;50.868;4.382;2022-08-19T00:03:03;27.65;;;20.70;;
20069;SDS011;10195;50.868;4.382;2022-08-19T00:05:29;28.75;;;22.20;;
20069;SDS011;10195;50.868;4.382;2022-08-19T00:07:55;24.05;;;21.33;;
20069;SDS011;10195;50.868;4.382;2022-08-19T00:10:21;27.58;;;23.33;;
20069;SDS011;10195;50.868;4.382;2022-08-19T00:12:47;26.55;;;21.90;;
20069;SDS011;10195;50.868;4.382;2022-08-19T00:15:14;28.55;;;23.08;;
20069;SDS011;10195;50.868;4.382;2022-08-19T00:17:42;27.48;;;22.45;;
20069;SDS011;10195;50.868;4.382;2022-08-19T00:20:09;32.20;;;25.15;;
20069;SDS011;10195;50.868;4.382;2022-08-19T00:22:37;31.63;;;24.58;;
20069;SDS011;10195;50.868;4.382;2022-08-19T00:25:04;31.95;;;24.27;;
20069;SDS011;10195;50.868;4.382;2022-08-19T00:27:30;37.22;;;27.90;;
20069;SDS011;10195;50.868;4.382;2022-08-19T00:29:56;38.90;;;27.95;;
20069;SDS011;10195;50.868;4.382;2022-08-19T00:32:24;42.25;;;31.02;;
20069;SDS011;10195;50.868;4.382;2022-08-19T00:34:50;43.05;;;32.30;;
20069;SDS011;10195;50.868;4.382;2022-08-19T00:37:21;44.13;;;32.35;;
20069;SDS011;10195;50.868;4.382;2022-08-19T00:39:48;47.53;;;33.70;;
20069;SDS011;10195;50.868;4.382;2022-08-19T00:42:13;48.83;;;34.08;;
20069;SDS011;10195;50.868;4.382;2022-08-19T00:44:40;50.45;;;34.85;;
20069;SDS011;10195;50.868;4.382;2022-08-19T00:47:06;45.33;;;34.42;;
20069;SDS011;10195;50.868;4.382;2022-08-19T00:49:36;55.72;;;36.58;;
20069;SDS011;10195;50.868;4.382;2022-08-19T00:52:09;53.90;;;37.33;;
20069;SDS011;10195;50.868;4.382;2022-08-19T00:54:39;56.83;;;37.45;;
20069;SDS011;10195;50.868;4.382;2022-08-19T00:57:07;61.70;;;40.25;;
20069;SDS011;10195;50.868;4.382;2022-08-19T00:59:40;61.50;;;41.90;;
20069;SDS011;10195;50.868;4.382;2022-08-19T01:02:07;62.55;;;40.60;;
20069;SDS011;10195;50.868;4.382;2022-08-19T01:04:33;58.72;;;39.25;;
20069;SDS011;10195;50.868;4.382;2022-08-19T01:06:59;54.83;;;39.95;;
20069;SDS011;10195;50.868;4.382;2022-08-19T01:09:26;65.93;;;41.95;;
20069;SDS011;10195;50.868;4.382;2022-08-19T01:11:52;62.00;;;41.90;;
20069;SDS011;10195;50.868;4.382;2022-08-19T01:14:17;53.95;;;38.22;;
20069;SDS011;10195;50.868;4.382;2022-08-19T01:16:44;57.90;;;40.63;;
20069;SDS011;10195;50.868;4.382;2022-08-19T01:19:18;61.53;;;40.80;;
20069;SDS011;10195;50.868;4.382;2022-08-19T01:21:52;55.95;;;39.97;;
20069;SDS011;10195;50.868;4.382;2022-08-19T01:24:22;59.53;;;39.30;;
20069;SDS011;10195;50.868;4.382;2022-08-19T01:26:48;49.03;;;35.53;;
20069;SDS011;10195;50.868;4.382;2022-08-19T01:29:15;48.20;;;32.65;;
20069;SDS011;10195;50.868;4.382;2022-08-19T01:31:40;49.88;;;35.63;;
20069;SDS011;10195;50.868;4.382;2022-08-19T01:34:06;49.78;;;35.40;;
20069;SDS011;10195;50.868;4.382;2022-08-19T01:36:34;46.08;;;32.72;;
20069;SDS011;10195;50.868;4.382;2022-08-19T01:39:07;48.78;;;33.63;;
20069;SDS011;10195;50.868;4.382;2022-08-19T01:41:37;43.08;;;32.15;;
20069;SDS011;10195;50.868;4.382;2022-08-19T01:44:03;47.55;;;33.13;;
20069;SDS011;10195;50.868;4.382;2022-08-19T01:46:31;45.75;;;32.33;;
20069;SDS011;10195;50.868;4.382;2022-08-19T01:48:57;48.58;;;32.88;;
20069;SDS011;10195;50.868;4.382;2022-08-19T01:51:23;39.10;;;29.17;;
20069;SDS011;10195;50.868;4.382;2022-08-19T01:53:49;36.28;;;26.58;;
20069;SDS011;10195;50.868;4.382;2022-08-19T01:56:16;36.00;;;26.48;;
20069;SDS011;10195;50.868;4.382;2022-08-19T01:58:48;33.85;;;26.33;;
20069;SDS011;10195;50.868;4.382;2022-08-19T02:01:18;32.88;;;24.90;;
20069;SDS011;10195;50.868;4.382;2022-08-19T02:03:44;33.92;;;26.08;;
20069;SDS011;10195;50.868;4.382;2022-08-19T02:06:10;32.97;;;24.63;;
20069;SDS011;10195;50.868;4.382;2022-08-19T02:08:37;37.47;;;26.90;;
20069;SDS011;10195;50.868;4.382;2022-08-19T02:11:05;38.15;;;27.20;;
20069;SDS011;10195;50.868;4.382;2022-08-19T02:13:31;31.15;;;23.52;;
20069;SDS011;10195;50.868;4.382;2022-08-19T02:15:58;34.17;;;22.52;;
20069;SDS011;10195;50.868;4.382;2022-08-19T02:18:24;29.77;;;21.88;;
20069;SDS011;10195;50.868;4.382;2022-08-19T02:20:51;28.85;;;19.83;;
20069;SDS011;10195;50.868;4.382;2022-08-19T02:23:17;27.25;;;19.92;;
20069;SDS011;10195;50.868;4.382;2022-08-19T02:25:43;28.83;;;21.08;;
20069;SDS011;10195;50.868;4.382;2022-08-19T02:28:11;28.35;;;21.95;;
20069;SDS011;10195;50.868;4.382;2022-08-19T02:30:37;30.33;;;21.55;;
20069;SDS011;10195;50.868;4.382;2022-08-19T02:33:05;30.38;;;22.00;;
20069;SDS011;10195;50.868;4.382;2022-08-19T02:35:30;32.53;;;24.27;;
20069;SDS011;10195;50.868;4.382;2022-08-19T02:37:56;32.60;;;24.73;;
20069;SDS011;10195;50.868;4.382;2022-08-19T02:40:49;31.52;;;23.88;;
20069;SDS011;10195;50.868;4.382;2022-08-19T02:43:16;34.85;;;25.08;;
20069;SDS011;10195;50.868;4.382;2022-08-19T02:45:43;29.45;;;22.98;;
20069;SDS011;10195;50.868;4.382;2022-08-19T02:48:08;35.63;;;23.42;;
20069;SDS011;10195;50.868;4.382;2022-08-19T02:50:38;30.42;;;22.45;;
20069;SDS011;10195;50.868;4.382;2022-08-19T02:53:04;29.65;;;22.30;;
20069;SDS011;10195;50.868;4.382;2022-08-19T02:55:32;33.03;;;22.58;;
20069;SDS011;10195;50.868;4.382;2022-08-19T02:57:57;30.20;;;22.27;;
20069;SDS011;10195;50.868;4.382;2022-08-19T03:00:24;32.22;;;23.13;;
20069;SDS011;10195;50.868;4.382;2022-08-19T03:02:51;32.65;;;23.15;;
20069;SDS011;10195;50.868;4.382;2022-08-19T03:05:17;30.38;;;22.17;;
20069;SDS011;10195;50.868;4.382;2022-08-19T03:07:43;33.70;;;22.00;;
20069;SDS011;10195;50.868;4.382;2022-08-19T03:10:08;28.60;;;21.48;;
20069;SDS011;10195;50.868;4.382;2022-08-19T03:12:35;34.80;;;23.27;;
20069;SDS011;10195;50.868;4.382;2022-08-19T03:15:03;31.70;;;21.50;;
20069;SDS011;10195;50.868;4.382;2022-08-19T03:17:33;30.95;;;21.05;;
20069;SDS011;10195;50.868;4.382;2022-08-19T03:19:59;38.13;;;21.88;;
20069;SDS011;10195;50.868;4.382;2022-08-19T03:22:25;31.88;;;21.58;;
20069;SDS011;10195;50.868;4.382;2022-08-19T03:24:51;33.10;;;22.23;;
20069;SDS011;10195;50.868;4.382;2022-08-19T03:27:18;37.13;;;22.73;;
20069;SDS011;10195;50.868;4.382;2022-08-19T03:29:43;31.80;;;21.15;;
20069;SDS011;10195;50.868;4.382;2022-08-19T03:32:10;31.70;;;22.50;;
20069;SDS011;10195;50.868;4.382;2022-08-19T03:34:37;35.33;;;21.15;;
20069;SDS011;10195;50.868;4.382;2022-08-19T03:37:07;38.53;;;21.60;;
20069;SDS011;10195;50.868;4.382;2022-08-19T03:39:36;29.20;;;19.85;;
20069;SDS011;10195;50.868;4.382;2022-08-19T03:42:02;36.15;;;20.90;;
20069;SDS011;10195;50.868;4.382;2022-08-19T03:44:29;29.63;;;21.02;;
20069;SDS011;10195;50.868;4.382;2022-08-19T03:46:56;34.88;;;22.70;;
20069;SDS011;10195;50.868;4.382;2022-08-19T03:49:24;31.50;;;20.27;;
20069;SDS011;10195;50.868;4.382;2022-08-19T03:51:52;34.25;;;22.48;;
20069;SDS011;10195;50.868;4.382;2022-08-19T03:54:19;33.10;;;21.17;;
20069;SDS011;10195;50.868;4.382;2022-08-19T03:56:48;28.83;;;19.88;;
20069;SDS011;10195;50.868;4.382;2022-08-19T03:59:16;31.35;;;21.10;;
20069;SDS011;10195;50.868;4.382;2022-08-19T04:01:45;36.42;;;20.65;;
20069;SDS011;10195;50.868;4.382;2022-08-19T04:04:11;33.60;;;21.55;;
20069;SDS011;10195;50.868;4.382;2022-08-19T04:06:38;31.23;;;22.27;;
20069;SDS011;10195;50.868;4.382;2022-08-19T04:09:05;37.05;;;22.98;;
20069;SDS011;10195;50.868;4.382;2022-08-19T04:11:35;36.95;;;22.00;;
20069;SDS011;10195;50.868;4.382;2022-08-19T04:14:06;31.08;;;21.92;;
20069;SDS011;10195;50.868;4.382;2022-08-19T04:16:33;35.53;;;22.05;;
20069;SDS011;10195;50.868;4.382;2022-08-19T04:18:59;33.45;;;21.67;;
20069;SDS011;10195;50.868;4.382;2022-08-19T04:21:26;31.77;;;21.65;;
20069;SDS011;10195;50.868;4.382;2022-08-19T04:23:52;32.03;;;21.50;;
20069;SDS011;10195;50.868;4.382;2022-08-19T04:26:27;34.75;;;22.83;;
20069;SDS011;10195;50.868;4.382;2022-08-19T04:28:57;32.55;;;20.92;;
20069;SDS011;10195;50.868;4.382;2022-08-19T04:31:24;33.15;;;20.88;;
20069;SDS011;10195;50.868;4.382;2022-08-19T04:33:53;32.95;;;21.10;;
20069;SDS011;10195;50.868;4.382;2022-08-19T04:36:23;33.35;;;21.38;;
20069;SDS011;10195;50.868;4.382;2022-08-19T04:38:56;28.53;;;20.63;;
20069;SDS011;10195;50.868;4.382;2022-08-19T04:41:23;32.17;;;21.13;;
20069;SDS011;10195;50.868;4.382;2022-08-19T04:44:08;34.97;;;20.88;;
20069;SDS011;10195;50.868;4.382;2022-08-19T04:46:34;35.38;;;19.45;;
20069;SDS011;10195;50.868;4.382;2022-08-19T04:49:01;36.13;;;20.38;;
20069;SDS011;10195;50.868;4.382;2022-08-19T04:51:29;29.33;;;18.73;;
20069;SDS011;10195;50.868;4.382;2022-08-19T04:53:56;31.70;;;18.48;;
20069;SDS011;10195;50.868;4.382;2022-08-19T04:56:22;28.90;;;17.85;;
20069;SDS011;10195;50.868;4.382;2022-08-19T04:58:51;33.20;;;18.10;;
20069;SDS011;10195;50.868;4.382;2022-08-19T05:01:18;30.25;;;15.73;;
20069;SDS011;10195;50.868;4.382;2022-08-19T05:03:49;30.23;;;16.98;;
20069;SDS011;10195;50.868;4.382;2022-08-19T05:06:16;24.42;;;15.63;;
20069;SDS011;10195;50.868;4.382;2022-08-19T05:08:43;22.90;;;15.30;;
20069;SDS011;10195;50.868;4.382;2022-08-19T05:11:11;26.40;;;14.98;;
20069;SDS011;10195;50.868;4.382;2022-08-19T05:13:42;29.55;;;15.45;;
20069;SDS011;10195;50.868;4.382;2022-08-19T05:16:10;31.20;;;15.18;;
20069;SDS011;10195;50.868;4.382;2022-08-19T05:18:38;30.63;;;16.13;;
20069;SDS011;10195;50.868;4.382;2022-08-19T05:21:24;28.05;;;14.93;;
20069;SDS011;10195;50.868;4.382;2022-08-19T05:24:09;26.60;;;15.55;;
20069;SDS011;10195;50.868;4.382;2022-08-19T05:26:36;28.85;;;15.38;;
20069;SDS011;10195;50.868;4.382;2022-08-19T05:29:02;26.98;;;15.25;;
20069;SDS011;10195;50.868;4.382;2022-08-19T05:31:29;23.92;;;14.82;;
20069;SDS011;10195;50.868;4.382;2022-08-19T05:33:55;26.23;;;14.77;;
20069;SDS011;10195;50.868;4.382;2022-08-19T05:36:23;22.83;;;14.15;;
20069;SDS011;10195;50.868;4.382;2022-08-19T05:38:52;25.77;;;14.85;;
20069;SDS011;10195;50.868;4.382;2022-08-19T05:41:19;30.50;;;14.02;;
20069;SDS011;10195;50.868;4.382;2022-08-19T05:43:46;23.05;;;12.43;;
20069;SDS011;10195;50.868;4.382;2022-08-19T05:46:18;24.83;;;12.65;;
20069;SDS011;10195;50.868;4.382;2022-08-19T05:48:44;20.42;;;12.02;;
20069;SDS011;10195;50.868;4.382;2022-08-19T05:51:10;20.08;;;11.73;;
20069;SDS011;10195;50.868;4.382;2022-08-19T05:53:36;20.33;;;12.52;;
20069;SDS011;10195;50.868;4.382;2022-08-19T05:56:06;26.02;;;11.45;;
20069;SDS011;10195;50.868;4.382;2022-08-19T05:58:33;21.85;;;13.25;;
20069;SDS011;10195;50.868;4.382;2022-08-19T06:00:59;23.58;;;12.60;;
20069;SDS011;10195;50.868;4.382;2022-08-19T06:03:29;21.65;;;12.43;;
20069;SDS011;10195;50.868;4.382;2022-08-19T06:05:58;33.95;;;11.73;;
20069;SDS011;10195;50.868;4.382;2022-08-19T06:08:25;22.35;;;11.73;;
20069;SDS011;10195;50.868;4.382;2022-08-19T06:10:51;25.50;;;12.95;;
20069;SDS011;10195;50.868;4.382;2022-08-19T06:13:17;22.17;;;11.63;;
20069;SDS011;10195;50.868;4.382;2022-08-19T06:15:44;17.58;;;11.18;;
20069;SDS011;10195;50.868;4.382;2022-08-19T06:18:11;19.85;;;10.95;;
20069;SDS011;10195;50.868;4.382;2022-08-19T06:20:37;19.48;;;11.13;;
20069;SDS011;10195;50.868;4.382;2022-08-19T06:23:03;20.95;;;10.82;;
20069;SDS011;10195;50.868;4.382;2022-08-19T06:25:29;21.13;;;10.93;;
20069;SDS011;10195;50.868;4.382;2022-08-19T06:27:55;16.73;;;9.45;;
20069;SDS011;10195;50.868;4.382;2022-08-19T06:30:21;19.25;;;8.85;;
20069;SDS011;10195;50.868;4.382;2022-08-19T06:32:46;13.35;;;8.95;;
20069;SDS011;10195;50.868;4.382;2022-08-19T06:35:12;22.45;;;9.43;;
20069;SDS011;10195;50.868;4.382;2022-08-19T06:37:39;17.65;;;8.68;;
20069;SDS011;10195;50.868;4.382;2022-08-19T06:40:06;20.90;;;8.57;;
20069;SDS011;10195;50.868;4.382;2022-08-19T06:42:33;15.93;;;7.97;;
20069;SDS011;10195;50.868;4.382;2022-08-19T06:45:00;15.35;;;8.15;;
20069;SDS011;10195;50.868;4.382;2022-08-19T06:47:28;17.95;;;8.45;;
20069;SDS011;10195;50.868;4.382;2022-08-19T06:49:58;16.65;;;7.38;;
20069;SDS011;10195;50.868;4.382;2022-08-19T06:52:31;19.88;;;7.40;;
20069;SDS011;10195;50.868;4.382;2022-08-19T06:54:59;17.90;;;8.27;;
20069;SDS011;10195;50.868;4.382;2022-08-19T06:57:25;14.27;;;7.50;;
20069;SDS011;10195;50.868;4.382;2022-08-19T06:59:52;13.05;;;7.60;;
20069;SDS011;10195;50.868;4.382;2022-08-19T07:02:17;15.18;;;7.28;;
20069;SDS011;10195;50.868;4.382;2022-08-19T07:04:45;15.25;;;7.80;;
20069;SDS011;10195;50.868;4.382;2022-08-19T07:07:12;14.63;;;7.63;;
20069;SDS011;10195;50.868;4.382;2022-08-19T07:09:41;16.15;;;7.20;;
20069;SDS011;10195;50.868;4.382;2022-08-19T07:12:09;19.23;;;8.23;;
20069;SDS011;10195;50.868;4.382;2022-08-19T07:14:36;13.85;;;7.63;;
20069;SDS011;10195;50.868;4.382;2022-08-19T07:17:04;19.73;;;8.18;;
20069;SDS011;10195;50.868;4.382;2022-08-19T07:19:32;13.75;;;7.85;;
20069;SDS011;10195;50.868;4.382;2022-08-19T07:21:58;13.32;;;8.27;;
20069;SDS011;10195;50.868;4.382;2022-08-19T07:24:26;14.20;;;7.78;;
20069;SDS011;10195;50.868;4.382;2022-08-19T07:26:53;14.35;;;7.50;;
20069;SDS011;10195;50.868;4.382;2022-08-19T07:29:22;14.20;;;7.68;;
20069;SDS011;10195;50.868;4.382;2022-08-19T07:31:49;15.15;;;6.90;;
20069;SDS011;10195;50.868;4.382;2022-08-19T07:34:16;13.65;;;6.65;;
20069;SDS011;10195;50.868;4.382;2022-08-19T07:36:42;11.77;;;6.03;;
20069;SDS011;10195;50.868;4.382;2022-08-19T07:39:10;20.83;;;7.10;;
20069;SDS011;10195;50.868;4.382;2022-08-19T07:41:38;9.43;;;6.18;;
20069;SDS011;10195;50.868;4.382;2022-08-19T07:44:05;14.35;;;5.85;;
20069;SDS011;10195;50.868;4.382;2022-08-19T07:46:32;12.90;;;5.97;;
20069;SDS011;10195;50.868;4.382;2022-08-19T07:49:00;11.07;;;6.05;;
20069;SDS011;10195;50.868;4.382;2022-08-19T07:51:27;9.55;;;5.68;;
20069;SDS011;10195;50.868;4.382;2022-08-19T07:53:53;12.70;;;5.30;;
20069;SDS011;10195;50.868;4.382;2022-08-19T07:56:20;12.30;;;5.82;;
20069;SDS011;10195;50.868;4.382;2022-08-19T07:58:47;12.52;;;5.65;;
20069;SDS011;10195;50.868;4.382;2022-08-19T08:01:17;20.90;;;5.97;;
20069;SDS011;10195;50.868;4.382;2022-08-19T08:03:45;16.40;;;6.03;;
20069;SDS011;10195;50.868;4.382;2022-08-19T08:06:30;15.07;;;6.32;;
20069;SDS011;10195;50.868;4.382;2022-08-19T08:09:16;21.33;;;6.82;;
20069;SDS011;10195;50.868;4.382;2022-08-19T08:11:54;17.83;;;6.05;;
20069;SDS011;10195;50.868;4.382;2022-08-19T08:17:22;13.80;;;6.05;;
20069;SDS011;10195;50.868;4.382;2022-08-19T08:19:50;11.93;;;5.50;;
20069;SDS011;10195;50.868;4.382;2022-08-19T08:22:17;9.10;;;5.82;;
20069;SDS011;10195;50.868;4.382;2022-08-19T08:25:07;13.10;;;5.10;;
20069;SDS011;10195;50.868;4.382;2022-08-19T08:27:43;9.27;;;5.45;;
20069;SDS011;10195;50.868;4.382;2022-08-19T08:30:11;10.05;;;5.32;;
20069;SDS011;10195;50.868;4.382;2022-08-19T08:32:40;14.57;;;5.13;;
20069;SDS011;10195;50.868;4.382;2022-08-19T08:35:07;10.50;;;5.20;;
20069;SDS011;10195;50.868;4.382;2022-08-19T08:37:35;9.45;;;5.68;;
20069;SDS011;10195;50.868;4.382;2022-08-19T08:40:05;19.13;;;5.10;;
20069;SDS011;10195;50.868;4.382;2022-08-19T08:42:40;10.27;;;4.90;;
20069;SDS011;10195;50.868;4.382;2022-08-19T08:45:14;12.10;;;5.60;;
20069;SDS011;10195;50.868;4.382;2022-08-19T08:47:43;10.00;;;4.70;;
20069;SDS011;10195;50.868;4.382;2022-08-19T08:50:19;9.10;;;4.95;;
20069;SDS011;10195;50.868;4.382;2022-08-19T08:52:47;10.70;;;5.60;;
20069;SDS011;10195;50.868;4.382;2022-08-19T08:55:20;10.70;;;5.72;;
20069;SDS011;10195;50.868;4.382;2022-08-19T09:02:53;12.15;;;5.95;;
20069;SDS011;10195;50.868;4.382;2022-08-19T09:05:19;12.52;;;5.30;;
20069;SDS011;10195;50.868;4.382;2022-08-19T09:07:57;25.80;;;5.85;;
20069;SDS011;10195;50.868;4.382;2022-08-19T09:13:07;12.60;;;5.47;;
20069;SDS011;10195;50.868;4.382;2022-08-19T09:16:06;18.83;;;5.78;;
20069;SDS011;10195;50.868;4.382;2022-08-19T09:18:40;11.38;;;5.15;;
20069;SDS011;10195;50.868;4.382;2022-08-19T09:21:15;9.82;;;5.97;;
20069;SDS011;10195;50.868;4.382;2022-08-19T09:23:40;9.18;;;5.38;;
20069;SDS011;10195;50.868;4.382;2022-08-19T09:26:09;10.02;;;5.30;;
20069;SDS011;10195;50.868;4.382;2022-08-19T09:28:39;14.95;;;5.03;;
20069;SDS011;10195;50.868;4.382;2022-08-19T09:31:08;10.73;;;4.57;;
20069;SDS011;10195;50.868;4.382;2022-08-19T09:33:35;10.13;;;5.00;;
20069;SDS011;10195;50.868;4.382;2022-08-19T09:36:08;9.52;;;4.60;;
20069;SDS011;10195;50.868;4.382;2022-08-19T09:38:35;11.80;;;4.97;;
20069;SDS011;10195;50.868;4.382;2022-08-19T09:41:05;7.57;;;4.63;;
20069;SDS011;10195;50.868;4.382;2022-08-19T09:43:37;9.32;;;4.50;;
20069;SDS011;10195;50.868;4.382;2022-08-19T09:46:03;8.57;;;5.13;;
20069;SDS011;10195;50.868;4.382;2022-08-19T09:48:34;9.50;;;4.55;;
20069;SDS011;10195;50.868;4.382;2022-08-19T09:51:13;10.23;;;5.15;;
20069;SDS011;10195;50.868;4.382;2022-08-19T09:53:40;8.00;;;5.00;;
20069;SDS011;10195;50.868;4.382;2022-08-19T09:56:07;7.53;;;5.30;;
20069;SDS011;10195;50.868;4.382;2022-08-19T09:58:33;7.65;;;5.45;;
20069;SDS011;10195;50.868;4.382;2022-08-19T10:01:01;8.30;;;4.78;;
20069;SDS011;10195;50.868;4.382;2022-08-19T10:03:28;8.65;;;4.55;;
20069;SDS011;10195;50.868;4.382;2022-08-19T10:05:54;7.35;;;4.60;;
20069;SDS011;10195;50.868;4.382;2022-08-19T10:08:27;29.70;;;4.97;;
20069;SDS011;10195;50.868;4.382;2022-08-19T10:10:56;4.80;;;4.03;;
20069;SDS011;10195;50.868;4.382;2022-08-19T10:13:23;7.55;;;4.55;;
20069;SDS011;10195;50.868;4.382;2022-08-19T10:15:52;8.65;;;4.50;;
20069;SDS011;10195;50.868;4.382;2022-08-19T10:18:19;8.63;;;5.03;;
20069;SDS011;10195;50.868;4.382;2022-08-19T10:20:46;6.40;;;3.75;;
20069;SDS011;10195;50.868;4.382;2022-08-19T10:23:13;5.63;;;4.13;;
20069;SDS011;10195;50.868;4.382;2022-08-19T10:25:40;6.00;;;4.05;;
20069;SDS011;10195;50.868;4.382;2022-08-19T10:28:07;6.55;;;3.70;;
20069;SDS011;10195;50.868;4.382;2022-08-19T10:30:36;5.47;;;3.90;;
20069;SDS011;10195;50.868;4.382;2022-08-19T10:33:04;6.95;;;4.30;;
20069;SDS011;10195;50.868;4.382;2022-08-19T10:35:30;7.72;;;4.43;;
20069;SDS011;10195;50.868;4.382;2022-08-19T10:37:56;8.93;;;5.30;;
20069;SDS011;10195;50.868;4.382;2022-08-19T10:40:27;6.38;;;4.80;;
20069;SDS011;10195;50.868;4.382;2022-08-19T10:42:53;8.13;;;5.13;;
20069;SDS011;10195;50.868;4.382;2022-08-19T10:45:20;5.93;;;4.97;;
20069;SDS011;10195;50.868;4.382;2022-08-19T10:47:48;9.27;;;4.70;;
20069;SDS011;10195;50.868;4.382;2022-08-19T10:50:14;20.70;;;5.80;;
20069;SDS011;10195;50.868;4.382;2022-08-19T10:53:03;7.32;;;5.80;;
20069;SDS011;10195;50.868;4.382;2022-08-19T10:55:35;11.43;;;6.57;;
20069;SDS011;10195;50.868;4.382;2022-08-19T10:58:21;11.18;;;6.45;;
20069;SDS011;10195;50.868;4.382;2022-08-19T11:00:55;19.85;;;6.47;;
20069;SDS011;10195;50.868;4.382;2022-08-19T11:03:22;13.27;;;6.45;;
20069;SDS011;10195;50.868;4.382;2022-08-19T11:05:58;9.23;;;5.78;;
20069;SDS011;10195;50.868;4.382;2022-08-19T11:08:25;6.40;;;5.15;;
20069;SDS011;10195;50.868;4.382;2022-08-19T11:10:52;10.25;;;5.50;;
20069;SDS011;10195;50.868;4.382;2022-08-19T11:13:25;8.45;;;5.60;;
20069;SDS011;10195;50.868;4.382;2022-08-19T11:16:00;10.25;;;5.22;;
20069;SDS011;10195;50.868;4.382;2022-08-19T11:18:28;10.23;;;6.43;;
20069;SDS011;10195;50.868;4.382;2022-08-19T11:20:54;13.75;;;6.18;;
20069;SDS011;10195;50.868;4.382;2022-08-19T11:23:20;19.58;;;5.30;;
20069;SDS011;10195;50.868;4.382;2022-08-19T11:25:46;7.20;;;4.40;;
20069;SDS011;10195;50.868;4.382;2022-08-19T11:28:12;7.07;;;5.15;;
20069;SDS011;10195;50.868;4.382;2022-08-19T11:30:38;9.15;;;4.72;;
20069;SDS011;10195;50.868;4.382;2022-08-19T11:33:04;9.05;;;4.40;;
20069;SDS011;10195;50.868;4.382;2022-08-19T11:35:30;7.88;;;4.40;;
20069;SDS011;10195;50.868;4.382;2022-08-19T11:37:55;5.57;;;4.32;;
20069;SDS011;10195;50.868;4.382;2022-08-19T11:40:26;10.48;;;5.82;;
20069;SDS011;10195;50.868;4.382;2022-08-19T11:42:51;14.50;;;7.40;;
20069;SDS011;10195;50.868;4.382;2022-08-19T11:45:20;11.77;;;7.88;;
20069;SDS011;10195;50.868;4.382;2022-08-19T11:47:46;9.43;;;7.72;;
20069;SDS011;10195;50.868;4.382;2022-08-19T11:50:12;9.48;;;8.38;;
20069;SDS011;10195;50.868;4.382;2022-08-19T11:52:39;11.48;;;8.55;;
20069;SDS011;10195;50.868;4.382;2022-08-19T11:55:05;10.77;;;8.20;;
20069;SDS011;10195;50.868;4.382;2022-08-19T11:57:32;11.10;;;6.63;;
20069;SDS011;10195;50.868;4.382;2022-08-19T11:59:57;8.13;;;6.70;;
20069;SDS011;10195;50.868;4.382;2022-08-19T12:02:23;9.55;;;6.93;;
20069;SDS011;10195;50.868;4.382;2022-08-19T12:04:49;11.82;;;6.68;;
20069;SDS011;10195;50.868;4.382;2022-08-19T12:07:14;8.00;;;6.35;;
20069;SDS011;10195;50.868;4.382;2022-08-19T12:09:40;9.48;;;5.53;;
20069;SDS011;10195;50.868;4.382;2022-08-19T12:12:06;11.35;;;5.88;;
20069;SDS011;10195;50.868;4.382;2022-08-19T12:14:33;10.75;;;5.60;;
20069;SDS011;10195;50.868;4.382;2022-08-19T12:16:59;7.53;;;5.47;;
20069;SDS011;10195;50.868;4.382;2022-08-19T12:19:25;9.32;;;5.13;;
20069;SDS011;10195;50.868;4.382;2022-08-19T12:21:51;10.82;;;5.35;;
20069;SDS011;10195;50.868;4.382;2022-08-19T12:24:18;9.48;;;5.85;;
20069;SDS011;10195;50.868;4.382;2022-08-19T12:26:48;7.35;;;5.05;;
20069;SDS011;10195;50.868;4.382;2022-08-19T12:29:14;9.88;;;5.05;;
20069;SDS011;10195;50.868;4.382;2022-08-19T12:31:39;6.65;;;4.40;;
20069;SDS011;10195;50.868;4.382;2022-08-19T12:34:05;8.75;;;4.45;;
20069;SDS011;10195;50.868;4.382;2022-08-19T12:36:31;10.07;;;4.18;;
20069;SDS011;10195;50.868;4.382;2022-08-19T12:38:58;8.30;;;3.85;;
20069;SDS011;10195;50.868;4.382;2022-08-19T12:41:24;4.85;;;3.50;;
20069;SDS011;10195;50.868;4.382;2022-08-19T12:43:50;5.43;;;3.63;;
20069;SDS011;10195;50.868;4.382;2022-08-19T12:46:16;4.65;;;3.08;;
20069;SDS011;10195;50.868;4.382;2022-08-19T12:48:43;4.63;;;2.97;;
20069;SDS011;10195;50.868;4.382;2022-08-19T12:51:11;4.22;;;3.05;;
20069;SDS011;10195;50.868;4.382;2022-08-19T12:53:39;6.50;;;3.15;;
20069;SDS011;10195;50.868;4.382;2022-08-19T12:56:06;5.40;;;2.78;;
20069;SDS011;10195;50.868;4.382;2022-08-19T12:58:32;6.07;;;2.67;;
20069;SDS011;10195;50.868;4.382;2022-08-19T13:00:59;4.72;;;2.72;;
20069;SDS011;10195;50.868;4.382;2022-08-19T13:03:30;5.47;;;2.75;;
20069;SDS011;10195;50.868;4.382;2022-08-19T13:05:56;5.93;;;3.25;;
20069;SDS011;10195;50.868;4.382;2022-08-19T13:08:22;4.75;;;2.80;;
20069;SDS011;10195;50.868;4.382;2022-08-19T13:10:47;9.98;;;3.08;;
20069;SDS011;10195;50.868;4.382;2022-08-19T13:13:13;4.60;;;2.40;;
20069;SDS011;10195;50.868;4.382;2022-08-19T13:15:40;3.35;;;2.15;;
20069;SDS011;10195;50.868;4.382;2022-08-19T13:18:07;3.38;;;1.92;;
20069;SDS011;10195;50.868;4.382;2022-08-19T13:20:34;4.50;;;2.40;;
20069;SDS011;10195;50.868;4.382;2022-08-19T13:23:00;3.67;;;2.40;;
20069;SDS011;10195;50.868;4.382;2022-08-19T13:25:26;2.45;;;2.15;;
20069;SDS011;10195;50.868;4.382;2022-08-19T13:27:52;3.25;;;2.30;;
20069;SDS011;10195;50.868;4.382;2022-08-19T13:30:19;5.57;;;2.20;;
20069;SDS011;10195;50.868;4.382;2022-08-19T13:33:04;6.15;;;1.95;;
20069;SDS011;10195;50.868;4.382;2022-08-19T13:35:39;5.72;;;2.00;;
20069;SDS011;10195;50.868;4.382;2022-08-19T13:38:13;4.30;;;1.90;;
20069;SDS011;10195;50.868;4.382;2022-08-19T13:40:41;2.95;;;1.52;;
20069;SDS011;10195;50.868;4.382;2022-08-19T13:43:07;5.20;;;2.40;;
20069;SDS011;10195;50.868;4.382;2022-08-19T13:45:34;5.85;;;2.03;;
20069;SDS011;10195;50.868;4.382;2022-08-19T13:48:01;6.07;;;2.17;;
20069;SDS011;10195;50.868;4.382;2022-08-19T13:50:31;5.25;;;2.03;;
20069;SDS011;10195;50.868;4.382;2022-08-19T13:52:58;7.47;;;2.58;;
20069;SDS011;10195;50.868;4.382;2022-08-19T13:55:25;3.75;;;2.38;;
20069;SDS011;10195;50.868;4.382;2022-08-19T13:57:54;2.83;;;1.90;;
20069;SDS011;10195;50.868;4.382;2022-08-19T14:00:22;6.80;;;2.40;;
20069;SDS011;10195;50.868;4.382;2022-08-19T14:02:51;3.63;;;2.30;;
20069;SDS011;10195;50.868;4.382;2022-08-19T14:05:19;2.92;;;2.00;;
20069;SDS011;10195;50.868;4.382;2022-08-19T14:07:45;12.05;;;2.42;;
20069;SDS011;10195;50.868;4.382;2022-08-19T14:10:12;5.78;;;2.35;;
20069;SDS011;10195;50.868;4.382;2022-08-19T14:12:39;2.90;;;2.20;;
20069;SDS011;10195;50.868;4.382;2022-08-19T14:15:06;7.75;;;2.42;;
20069;SDS011;10195;50.868;4.382;2022-08-19T14:17:33;7.10;;;2.78;;
20069;SDS011;10195;50.868;4.382;2022-08-19T14:20:00;3.72;;;1.90;;
20069;SDS011;10195;50.868;4.382;2022-08-19T14:22:32;6.70;;;2.35;;
20069;SDS011;10195;50.868;4.382;2022-08-19T14:24:58;4.43;;;2.30;;
20069;SDS011;10195;50.868;4.382;2022-08-19T14:27:24;4.68;;;2.83;;
20069;SDS011;10195;50.868;4.382;2022-08-19T14:29:50;11.80;;;3.35;;
20069;SDS011;10195;50.868;4.382;2022-08-19T14:32:16;9.27;;;2.63;;
20069;SDS011;10195;50.868;4.382;2022-08-19T14:34:42;3.85;;;2.28;;
20069;SDS011;10195;50.868;4.382;2022-08-19T14:37:11;9.77;;;2.60;;
20069;SDS011;10195;50.868;4.382;2022-08-19T14:39:39;4.50;;;1.65;;
20069;SDS011;10195;50.868;4.382;2022-08-19T14:42:09;6.18;;;2.17;;
20069;SDS011;10195;50.868;4.382;2022-08-19T14:44:34;4.68;;;1.85;;
20069;SDS011;10195;50.868;4.382;2022-08-19T14:47:00;3.70;;;2.00;;
20069;SDS011;10195;50.868;4.382;2022-08-19T14:49:26;7.55;;;2.42;;